Pleasant Mills, Indiana
Current Conditions -  °F | °C
As of 4:54 AM on Sunday 21 Dec 2014 (Local Time) from KFWA Reporting Station
Overcast Overcast  
Wind Chill: 30°   Ceiling: 6000
Heat Index: 30°   Visibility: 8mi
Dew Point: 26°   Wind: 3mph
Humidity: 85%   Direction: 190°S
Pressure: 30.29"   Gusts: NA
Location:  40.78°N, 84.84°W
Report Text: KFWA 210954Z 19003KT 8SM OVC060 M01/M03 A3029 RMK AO2 SLP267 T10111033
Loading
Personal Weather Stations






























Interactive Weather Map New forecast layout! Learn more

10-Day Weather Forecast

Advertisements
Track Severe Weather on mobile